createdAt,value
2023-02-24T00:00:47.441Z,53.34
2023-02-24T00:03:16.514Z,53.25
2023-02-24T00:05:50.316Z,53.37
2023-02-24T00:08:18.355Z,53.40
2023-02-24T00:10:47.906Z,53.28
2023-02-24T00:13:22.356Z,53.26
2023-02-24T00:16:03.246Z,53.17
2023-02-24T00:19:01.282Z,53.19
2023-02-24T00:21:28.800Z,53.19
2023-02-24T00:23:59.728Z,53.07
2023-02-24T00:26:30.633Z,53.13
2023-02-24T00:29:03.793Z,53.32
2023-02-24T00:31:33.226Z,53.04
2023-02-24T00:34:04.108Z,53.18
2023-02-24T00:36:34.388Z,53.16
2023-02-24T00:39:10.580Z,52.88
2023-02-24T00:41:43.852Z,52.89
2023-02-24T00:44:14.687Z,53.24
2023-02-24T00:46:47.367Z,53.04
2023-02-24T00:49:20.018Z,52.88
2023-02-24T00:51:49.593Z,52.93
2023-02-24T00:54:19.227Z,52.84
2023-02-24T00:56:49.031Z,52.72
2023-02-24T00:59:24.231Z,52.54
2023-02-24T01:01:55.055Z,52.72
2023-02-24T01:04:24.082Z,52.80
2023-02-24T01:07:00.663Z,52.71
2023-02-24T01:09:32.028Z,52.85
2023-02-24T01:12:19.546Z,52.92
2023-02-24T01:14:51.365Z,52.72
2023-02-24T01:17:21.164Z,52.63
2023-02-24T01:19:50.434Z,52.57
2023-02-24T01:22:21.107Z,52.49
2023-02-24T01:24:49.984Z,52.52
2023-02-24T01:27:19.643Z,52.50
2023-02-24T01:29:49.197Z,52.61
2023-02-24T01:32:21.618Z,52.59
2023-02-24T01:34:53.927Z,52.58
2023-02-24T01:37:24.253Z,52.73
2023-02-24T01:39:54.676Z,52.55
2023-02-24T01:42:24.359Z,52.70
2023-02-24T01:44:54.169Z,52.84
2023-02-24T01:47:23.564Z,52.64
2023-02-24T01:49:54.800Z,52.54
2023-02-24T01:52:31.759Z,52.75
2023-02-24T01:55:25.520Z,52.55
2023-02-24T01:57:56.501Z,52.51
2023-02-24T02:00:38.236Z,52.48
2023-02-24T02:03:33.348Z,52.49
2023-02-24T02:06:06.988Z,52.55
2023-02-24T02:08:39.824Z,52.50
2023-02-24T02:11:13.882Z,52.44
2023-02-24T02:13:45.573Z,52.35
2023-02-24T02:16:47.075Z,52.37
2023-02-24T02:19:55.678Z,52.41
2023-02-24T02:23:02.260Z,52.49
2023-02-24T02:26:00.643Z,52.43
2023-02-24T02:29:12.585Z,52.40
2023-02-24T02:32:22.363Z,52.33
2023-02-24T02:35:04.477Z,52.54
2023-02-24T02:37:41.211Z,52.53
2023-02-24T02:40:37.603Z,52.41
2023-02-24T02:43:26.699Z,52.28
2023-02-24T02:46:35.082Z,52.28
2023-02-24T02:49:36.021Z,52.23
2023-02-24T02:52:21.155Z,52.55
2023-02-24T02:55:01.418Z,52.34
2023-02-24T02:57:32.756Z,52.49
2023-02-24T03:00:29.375Z,52.25
2023-02-24T03:03:07.927Z,52.33
2023-02-24T03:05:56.805Z,52.20
2023-02-24T03:08:34.395Z,52.11
2023-02-24T03:11:05.699Z,52.24
2023-02-24T03:13:41.469Z,52.12
2023-02-24T03:16:12.510Z,52.10
2023-02-24T03:18:53.080Z,52.17
2023-02-24T03:21:45.306Z,51.99
2023-02-24T03:24:16.073Z,52.09
2023-02-24T03:27:23.348Z,51.90
2023-02-24T03:30:30.913Z,51.91
2023-02-24T03:33:32.609Z,51.83
2023-02-24T03:36:03.313Z,51.93
2023-02-24T03:38:36.318Z,51.95
2023-02-24T03:41:11.329Z,51.82
2023-02-24T03:43:45.617Z,51.72
2023-02-24T03:46:17.379Z,51.79
2023-02-24T03:48:55.986Z,51.76
2023-02-24T03:51:24.805Z,51.74
2023-02-24T03:54:30.989Z,51.69
2023-02-24T03:58:00.702Z,51.76
2023-02-24T04:01:10.971Z,51.86
2023-02-24T04:04:21.654Z,51.75
2023-02-24T04:07:13.949Z,51.78
2023-02-24T04:10:05.274Z,51.63
2023-02-24T04:12:49.230Z,51.80
2023-02-24T04:15:37.732Z,51.53
2023-02-24T04:18:20.024Z,51.58
2023-02-24T04:20:53.528Z,51.72
2023-02-24T04:23:32.677Z,51.57
2023-02-24T04:26:01.854Z,51.70
2023-02-24T04:28:31.720Z,51.47
2023-02-24T04:31:10.541Z,51.47
2023-02-24T04:33:40.327Z,51.77
2023-02-24T04:36:13.181Z,51.51
2023-02-24T04:38:45.993Z,51.52
2023-02-24T04:41:22.217Z,51.64
2023-02-24T04:43:51.558Z,51.61
2023-02-24T04:46:21.210Z,51.59
2023-02-24T04:48:51.327Z,51.45
2023-02-24T04:51:21.199Z,51.69
2023-02-24T04:53:50.527Z,51.40
2023-02-24T04:56:19.594Z,51.43
2023-02-24T04:58:47.935Z,51.44
2023-02-24T05:01:16.302Z,51.31
2023-02-24T05:03:44.783Z,51.26
2023-02-24T05:06:17.917Z,51.16
2023-02-24T05:08:46.572Z,51.42
2023-02-24T05:11:16.655Z,51.33
2023-02-24T05:13:46.264Z,51.48
2023-02-24T05:16:18.265Z,51.28
2023-02-24T05:18:47.468Z,51.19
2023-02-24T05:21:36.183Z,51.27
2023-02-24T05:24:08.571Z,51.37
2023-02-24T05:26:41.848Z,51.29
2023-02-24T05:29:12.536Z,51.35
2023-02-24T05:31:40.857Z,51.38
2023-02-24T05:34:17.320Z,51.25
2023-02-24T05:36:49.545Z,51.31
2023-02-24T05:39:19.813Z,51.28
2023-02-24T05:41:50.029Z,51.22
2023-02-24T05:44:25.955Z,51.20
2023-02-24T05:46:58.806Z,51.25
2023-02-24T05:49:33.337Z,51.08
2023-02-24T05:52:10.098Z,51.07
2023-02-24T05:54:44.235Z,51.01
2023-02-24T05:57:25.055Z,50.93
2023-02-24T05:59:57.590Z,51.06
2023-02-24T06:02:29.268Z,51.17
2023-02-24T06:04:59.347Z,51.00
2023-02-24T06:07:34.998Z,51.09
2023-02-24T06:10:05.106Z,51.02
2023-02-24T06:12:36.072Z,50.99
2023-02-24T06:15:08.711Z,50.97
2023-02-24T06:17:37.218Z,51.24
2023-02-24T06:20:15.758Z,51.19
2023-02-24T06:22:44.651Z,51.23
2023-02-24T06:25:13.163Z,51.24
2023-02-24T06:27:43.135Z,51.08
2023-02-24T06:30:13.909Z,51.20
2023-02-24T06:32:44.931Z,51.21
2023-02-24T06:35:14.679Z,51.18
2023-02-24T06:37:44.739Z,51.19
2023-02-24T06:40:16.071Z,51.28
2023-02-24T06:42:55.982Z,51.11
2023-02-24T06:45:26.426Z,51.19
2023-02-24T06:47:54.576Z,51.19
2023-02-24T06:50:23.836Z,51.26
2023-02-24T06:53:01.143Z,51.23
2023-02-24T06:55:29.432Z,51.37
2023-02-24T06:58:05.673Z,51.36
2023-02-24T07:00:41.149Z,51.50
2023-02-24T07:03:20.204Z,51.32
2023-02-24T07:06:00.949Z,51.74
2023-02-24T07:08:28.672Z,51.68
2023-02-24T07:11:00.649Z,51.62
2023-02-24T07:13:29.986Z,51.61
2023-02-24T07:16:06.890Z,51.69
2023-02-24T07:18:41.776Z,51.71
2023-02-24T07:21:12.029Z,51.76
2023-02-24T07:23:42.038Z,51.83
2023-02-24T07:26:19.144Z,51.87
2023-02-24T07:28:49.502Z,51.90
2023-02-24T07:31:22.908Z,52.02
2023-02-24T07:34:03.867Z,51.93
2023-02-24T07:36:49.512Z,51.99
2023-02-24T07:39:19.942Z,51.97
2023-02-24T07:41:49.968Z,52.11
2023-02-24T07:44:22.758Z,52.01
2023-02-24T07:46:55.115Z,51.82
2023-02-24T07:49:28.187Z,51.92
2023-02-24T07:51:59.383Z,51.86
2023-02-24T07:54:30.537Z,51.77
2023-02-24T07:57:03.425Z,51.80
2023-02-24T07:59:39.309Z,51.72
2023-02-24T08:02:11.480Z,51.78
2023-02-24T08:04:50.366Z,52.06
2023-02-24T08:07:30.677Z,51.96
2023-02-24T08:10:16.070Z,51.74
2023-02-24T08:12:44.589Z,51.64
2023-02-24T08:15:24.351Z,51.39
2023-02-24T08:18:01.313Z,51.20
2023-02-24T08:20:54.132Z,51.23
2023-02-24T08:23:23.758Z,51.08
2023-02-24T08:25:53.944Z,51.10
2023-02-24T08:28:27.085Z,50.94
2023-02-24T08:30:55.342Z,50.83
2023-02-24T08:33:23.699Z,50.62
2023-02-24T08:36:01.742Z,50.62
2023-02-24T08:38:40.283Z,50.66
2023-02-24T08:41:26.843Z,50.52
2023-02-24T08:43:56.818Z,50.83
2023-02-24T08:46:27.500Z,50.59
2023-02-24T08:49:02.344Z,50.40
2023-02-24T08:51:37.299Z,50.46
2023-02-24T08:54:18.227Z,50.45
2023-02-24T08:57:09.604Z,50.54
2023-02-24T09:00:12.002Z,50.56
2023-02-24T09:02:42.588Z,50.47
2023-02-24T09:05:14.715Z,50.61
2023-02-24T09:07:43.889Z,50.53
2023-02-24T09:10:19.632Z,50.43
2023-02-24T09:12:53.927Z,50.36
2023-02-24T09:15:26.589Z,50.30
2023-02-24T09:18:09.480Z,50.21
2023-02-24T09:20:58.011Z,49.96
2023-02-24T09:23:46.245Z,50.39
2023-02-24T09:26:15.080Z,50.43
2023-02-24T09:28:49.191Z,50.00
2023-02-24T09:31:17.782Z,50.13
2023-02-24T09:33:53.241Z,50.01
2023-02-24T09:36:30.447Z,49.53
2023-02-24T09:39:01.279Z,49.67
2023-02-24T09:41:57.243Z,49.43
2023-02-24T09:44:40.107Z,49.52
2023-02-24T09:47:31.590Z,49.40
2023-02-24T09:51:02.135Z,49.34
2023-02-24T09:53:49.702Z,49.47
2023-02-24T09:56:42.956Z,49.27
2023-02-24T09:59:35.035Z,49.23
2023-02-24T10:02:39.757Z,48.87
2023-02-24T10:05:38.746Z,48.93
2023-02-24T10:08:38.942Z,49.01
2023-02-24T10:11:10.014Z,49.13
2023-02-24T10:13:52.422Z,48.82
2023-02-24T10:16:24.440Z,48.67
2023-02-24T10:19:26.916Z,48.64
2023-02-24T10:22:08.678Z,48.84
2023-02-24T10:25:01.531Z,48.69
2023-02-24T10:27:37.110Z,48.63
2023-02-24T10:30:28.198Z,48.87
2023-02-24T10:33:02.968Z,48.86
2023-02-24T10:35:33.840Z,48.75
2023-02-24T10:38:08.214Z,48.59
2023-02-24T10:40:56.915Z,48.39
2023-02-24T10:43:34.060Z,48.25
2023-02-24T10:46:06.493Z,48.22
2023-02-24T10:48:42.694Z,48.24
2023-02-24T10:51:23.581Z,48.31
2023-02-24T10:54:30.550Z,48.37
2023-02-24T10:57:18.874Z,48.54
2023-02-24T11:00:19.089Z,48.43
2023-02-24T11:02:57.992Z,48.43
2023-02-24T11:05:38.712Z,48.64
2023-02-24T11:08:39.188Z,48.19
2023-02-24T11:11:30.311Z,47.96
2023-02-24T11:14:21.248Z,48.27
2023-02-24T11:17:12.949Z,48.31
2023-02-24T11:20:00.141Z,47.92
2023-02-24T11:22:37.306Z,48.01
2023-02-24T11:25:33.797Z,47.99
2023-02-24T11:28:05.236Z,48.07
2023-02-24T11:31:01.312Z,47.78
2023-02-24T11:33:45.822Z,47.95
2023-02-24T11:36:20.597Z,48.01
2023-02-24T11:39:31.061Z,47.81
2023-02-24T11:42:13.647Z,47.93
2023-02-24T11:44:58.278Z,47.57
2023-02-24T11:47:53.451Z,47.52
2023-02-24T11:50:56.137Z,47.37
2023-02-24T11:53:54.439Z,47.16
2023-02-24T11:56:40.398Z,47.02
2023-02-24T11:59:30.965Z,46.71
2023-02-24T12:02:19.955Z,46.64
2023-02-24T12:05:19.135Z,46.67
2023-02-24T12:08:10.076Z,46.87
2023-02-24T12:10:52.575Z,46.95
2023-02-24T12:13:57.737Z,46.88
2023-02-24T12:16:33.914Z,46.91
2023-02-24T12:19:37.524Z,46.69
2023-02-24T12:22:15.476Z,46.74
2023-02-24T12:24:53.419Z,46.67
2023-02-24T12:28:18.451Z,46.71
2023-02-24T12:31:06.310Z,46.65
2023-02-24T12:34:12.655Z,46.46
2023-02-24T12:37:08.073Z,46.35
2023-02-24T12:40:02.571Z,46.33
2023-02-24T12:42:59.001Z,46.36
2023-02-24T12:45:36.150Z,46.41
2023-02-24T12:48:56.851Z,46.36
2023-02-24T12:51:54.868Z,46.32
2023-02-24T12:54:36.981Z,46.28
2023-02-24T12:57:27.337Z,46.35
2023-02-24T12:59:58.272Z,46.52
2023-02-24T13:02:50.606Z,46.45
2023-02-24T13:05:37.009Z,46.35
2023-02-24T13:08:24.091Z,46.42
2023-02-24T13:11:36.761Z,46.38
2023-02-24T13:14:34.431Z,46.54
2023-02-24T13:17:27.355Z,46.59
2023-02-24T13:19:57.548Z,47.04
2023-02-24T13:22:34.018Z,46.85
2023-02-24T13:25:22.826Z,46.90
2023-02-24T13:28:04.794Z,46.82
2023-02-24T13:30:35.631Z,47.04
2023-02-24T13:33:06.035Z,47.08
2023-02-24T13:35:37.628Z,47.06
2023-02-24T13:38:32.076Z,47.06
2023-02-24T13:41:29.017Z,47.04
2023-02-24T13:44:23.151Z,47.17
2023-02-24T13:47:12.131Z,47.36
2023-02-24T13:50:02.366Z,47.20
2023-02-24T13:52:58.333Z,47.25
2023-02-24T13:55:56.832Z,47.28
2023-02-24T13:58:53.117Z,47.25
2023-02-24T14:01:23.309Z,47.28
2023-02-24T14:04:15.438Z,47.15
2023-02-24T14:06:51.728Z,47.25
2023-02-24T14:09:29.628Z,47.13
2023-02-24T14:12:13.716Z,47.38
2023-02-24T14:14:48.021Z,47.32
2023-02-24T14:17:36.246Z,47.32
2023-02-24T14:20:11.861Z,47.50
2023-02-24T14:23:02.997Z,47.32
2023-02-24T14:25:42.788Z,47.57
2023-02-24T14:28:24.122Z,47.62
2023-02-24T14:30:58.683Z,47.60
2023-02-24T14:33:35.766Z,47.32
2023-02-24T14:36:13.668Z,47.25
2023-02-24T14:38:44.204Z,47.31
2023-02-24T14:41:28.387Z,46.86
2023-02-24T14:43:57.227Z,47.18
2023-02-24T14:46:27.169Z,46.99
2023-02-24T14:48:57.383Z,47.24
2023-02-24T14:51:53.794Z,46.92
2023-02-24T14:54:47.076Z,46.82
2023-02-24T14:58:22.907Z,46.79
2023-02-24T15:01:19.590Z,47.03
2023-02-24T15:03:57.481Z,47.15
2023-02-24T15:06:41.414Z,47.11
2023-02-24T15:09:41.896Z,46.91
2023-02-24T15:12:13.389Z,46.89
2023-02-24T15:14:48.166Z,47.22
2023-02-24T15:17:19.997Z,47.01
2023-02-24T15:19:54.476Z,47.12
2023-02-24T15:22:24.908Z,47.02
2023-02-24T15:25:10.137Z,46.91
2023-02-24T15:28:01.909Z,46.92
2023-02-24T15:30:33.721Z,47.05
2023-02-24T15:33:23.569Z,46.82
2023-02-24T15:35:56.448Z,46.92
2023-02-24T15:38:42.663Z,46.51
2023-02-24T15:41:13.928Z,47.06
2023-02-24T15:43:47.326Z,46.69
2023-02-24T15:46:30.853Z,46.63
2023-02-24T15:49:03.491Z,46.77
2023-02-24T15:51:36.602Z,46.56
2023-02-24T15:54:15.240Z,46.52
2023-02-24T15:56:44.423Z,46.76
2023-02-24T15:59:20.451Z,46.53
2023-02-24T16:01:48.541Z,46.84
2023-02-24T16:04:18.990Z,46.64
2023-02-24T16:06:55.041Z,46.72
2023-02-24T16:09:39.297Z,46.50
2023-02-24T16:12:31.763Z,46.59
2023-02-24T16:15:03.121Z,46.53
2023-02-24T16:17:42.484Z,46.33
2023-02-24T16:20:31.814Z,46.53
2023-02-24T16:23:05.724Z,46.59
2023-02-24T16:25:42.006Z,46.30
2023-02-24T16:28:17.165Z,46.17
2023-02-24T16:30:47.041Z,46.27
2023-02-24T16:33:21.362Z,46.32
2023-02-24T16:35:53.665Z,46.27
2023-02-24T16:38:28.321Z,46.34
2023-02-24T16:40:57.427Z,46.29
2023-02-24T16:43:26.193Z,46.38
2023-02-24T16:46:01.480Z,46.36
2023-02-24T16:48:34.908Z,46.39
2023-02-24T16:51:07.982Z,46.49
2023-02-24T16:53:35.905Z,46.37
2023-02-24T16:56:05.736Z,46.67
2023-02-24T16:58:34.763Z,46.38
2023-02-24T17:01:05.226Z,46.36
2023-02-24T17:03:47.369Z,46.31
2023-02-24T17:06:15.510Z,46.39
2023-02-24T17:08:46.149Z,46.19
2023-02-24T17:11:19.802Z,46.14
2023-02-24T17:13:48.677Z,46.13
2023-02-24T17:16:17.313Z,46.21
2023-02-24T17:18:47.356Z,46.08
2023-02-24T17:21:18.155Z,46.13
2023-02-24T17:23:46.826Z,46.22
2023-02-24T17:26:15.960Z,46.22
2023-02-24T17:28:45.204Z,46.23
2023-02-24T17:31:14.287Z,46.08
2023-02-24T17:33:45.275Z,46.21
2023-02-24T17:36:13.622Z,46.32
2023-02-24T17:38:42.047Z,46.29
2023-02-24T17:41:11.321Z,46.29
2023-02-24T17:43:40.923Z,46.54
2023-02-24T17:46:09.467Z,46.40
2023-02-24T17:48:39.221Z,46.57
2023-02-24T17:51:07.225Z,46.54
2023-02-24T17:53:35.412Z,46.48
2023-02-24T17:56:08.276Z,46.68
2023-02-24T17:58:38.111Z,46.67
2023-02-24T18:01:07.310Z,46.74
2023-02-24T18:03:37.317Z,46.94
2023-02-24T18:06:11.672Z,46.90
2023-02-24T18:08:41.263Z,46.85
2023-02-24T18:11:16.908Z,46.92
2023-02-24T18:13:45.708Z,47.32
2023-02-24T18:16:16.967Z,47.11
2023-02-24T18:18:45.298Z,47.12
2023-02-24T18:21:13.994Z,47.04
2023-02-24T18:23:42.276Z,47.29
2023-02-24T18:26:13.018Z,47.20
2023-02-24T18:28:42.033Z,47.57
2023-02-24T18:31:19.815Z,47.34
2023-02-24T18:33:52.670Z,47.40
2023-02-24T18:36:21.671Z,47.29
2023-02-24T18:38:50.182Z,47.29
2023-02-24T18:41:28.729Z,47.27
2023-02-24T18:43:59.365Z,47.24
2023-02-24T18:46:31.819Z,47.51
2023-02-24T18:49:00.104Z,47.52
2023-02-24T18:51:29.337Z,47.50
2023-02-24T18:54:01.513Z,47.33
2023-02-24T18:56:31.559Z,47.17
2023-02-24T18:59:01.534Z,47.12
2023-02-24T19:01:39.359Z,47.11
2023-02-24T19:04:10.391Z,47.21
2023-02-24T19:06:45.320Z,47.27
2023-02-24T19:09:16.071Z,47.10
2023-02-24T19:11:45.099Z,47.15
2023-02-24T19:14:16.897Z,47.21
2023-02-24T19:16:45.514Z,46.99
2023-02-24T19:19:17.447Z,47.17
2023-02-24T19:21:45.920Z,47.18
2023-02-24T19:24:17.606Z,47.03
2023-02-24T19:26:47.773Z,47.09
2023-02-24T19:29:17.559Z,47.16
2023-02-24T19:31:57.261Z,47.16
2023-02-24T19:34:27.236Z,47.24
2023-02-24T19:36:55.084Z,47.24
2023-02-24T19:39:23.801Z,47.27
2023-02-24T19:41:53.315Z,47.28
2023-02-24T19:44:21.537Z,47.21
2023-02-24T19:46:49.865Z,47.28
2023-02-24T19:49:18.177Z,47.32
2023-02-24T19:51:51.729Z,47.23
2023-02-24T19:54:23.026Z,47.31
2023-02-24T19:56:52.590Z,47.35
2023-02-24T19:59:20.527Z,47.33
2023-02-24T20:01:52.241Z,47.35
2023-02-24T20:04:31.740Z,47.25
2023-02-24T20:07:01.176Z,47.27
2023-02-24T20:09:30.432Z,47.29
2023-02-24T20:11:59.093Z,47.08
2023-02-24T20:14:30.380Z,47.16
2023-02-24T20:16:59.120Z,47.26
2023-02-24T20:19:29.331Z,47.36
2023-02-24T20:21:58.199Z,46.87
2023-02-24T20:24:26.788Z,46.27
2023-02-24T20:26:54.978Z,45.67
2023-02-24T20:29:24.283Z,45.24
2023-02-24T20:31:53.346Z,44.67
2023-02-24T20:34:22.910Z,44.44
2023-02-24T20:36:51.308Z,44.37
2023-02-24T20:39:22.415Z,44.22
2023-02-24T20:41:55.879Z,44.25
2023-02-24T20:44:25.041Z,44.20
2023-02-24T20:46:54.794Z,44.47
2023-02-24T20:49:27.329Z,44.53
2023-02-24T20:51:55.967Z,44.45
2023-02-24T20:54:24.580Z,44.58
2023-02-24T20:56:52.865Z,44.61
2023-02-24T20:59:26.486Z,44.78
2023-02-24T21:01:56.077Z,44.76
2023-02-24T21:04:24.332Z,44.95
2023-02-24T21:06:54.604Z,45.03
2023-02-24T21:09:24.584Z,45.10
2023-02-24T21:11:53.183Z,45.06
2023-02-24T21:14:23.363Z,45.08
2023-02-24T21:16:52.254Z,45.26
2023-02-24T21:19:21.154Z,45.20
2023-02-24T21:21:49.448Z,45.33
2023-02-24T21:24:18.525Z,45.37
2023-02-24T21:26:47.558Z,45.08
2023-02-24T21:29:15.410Z,45.36
2023-02-24T21:31:43.919Z,45.28
2023-02-24T21:34:12.305Z,45.24
2023-02-24T21:36:43.498Z,45.35
2023-02-24T21:39:15.633Z,45.07
2023-02-24T21:41:44.935Z,45.07
2023-02-24T21:44:14.951Z,45.13
2023-02-24T21:46:47.038Z,45.22
2023-02-24T21:49:18.559Z,45.18
2023-02-24T21:51:50.698Z,45.45
2023-02-24T21:54:19.845Z,45.18
2023-02-24T21:56:48.068Z,45.13
2023-02-24T21:59:16.324Z,45.32
2023-02-24T22:01:46.042Z,45.01
2023-02-24T22:04:19.159Z,45.17
2023-02-24T22:06:47.631Z,44.96
2023-02-24T22:09:20.976Z,45.17
2023-02-24T22:11:50.037Z,45.07
2023-02-24T22:14:20.621Z,44.90
2023-02-24T22:16:49.276Z,45.10
2023-02-24T22:19:19.385Z,44.90
2023-02-24T22:21:47.608Z,44.39
2023-02-24T22:24:19.058Z,44.51
2023-02-24T22:26:46.965Z,44.80
2023-02-24T22:29:14.959Z,44.84
2023-02-24T22:31:44.164Z,44.65
2023-02-24T22:34:14.353Z,44.41
2023-02-24T22:36:55.474Z,44.13
2023-02-24T22:39:23.506Z,44.27
2023-02-24T22:41:54.373Z,44.40
2023-02-24T22:44:23.016Z,44.14
2023-02-24T22:46:51.525Z,44.00
2023-02-24T22:49:19.563Z,44.14
2023-02-24T22:51:47.654Z,44.03
2023-02-24T22:54:16.249Z,43.81
2023-02-24T22:56:44.546Z,43.78
2023-02-24T22:59:13.996Z,43.69
2023-02-24T23:01:44.166Z,43.75
2023-02-24T23:04:19.991Z,43.68
2023-02-24T23:06:50.578Z,43.95
2023-02-24T23:09:21.332Z,43.75
2023-02-24T23:11:49.764Z,43.68
2023-02-24T23:14:18.322Z,43.75
2023-02-24T23:16:53.421Z,43.93
2023-02-24T23:19:23.279Z,43.76
2023-02-24T23:21:54.205Z,43.77
2023-02-24T23:24:24.386Z,43.79
2023-02-24T23:26:57.618Z,43.61
2023-02-24T23:29:26.746Z,43.68
2023-02-24T23:31:56.680Z,43.38
2023-02-24T23:34:24.991Z,43.27
2023-02-24T23:36:53.415Z,43.45
2023-02-24T23:39:24.164Z,43.52
2023-02-24T23:41:57.520Z,43.33
2023-02-24T23:44:27.362Z,43.14
2023-02-24T23:46:58.623Z,43.38
2023-02-24T23:49:36.079Z,43.03
2023-02-24T23:52:14.038Z,43.28
2023-02-24T23:54:42.784Z,43.23
2023-02-24T23:57:11.626Z,42.57
2023-02-24T23:59:40.659Z,42.95
